Time;durP1;ratioP1;P1;durP2;ratioP2;P2;SDS_P1;SDS_P2;PMS_P1;PMS_P2;Temp;Humidity;BMP_temperature;BMP_pressure;BME280_temperature;BME280_humidity;BME280_pressure;Samples;Min_cycle;Max_cycle;Signal;HPM_P1;HPM_P2
2022/06/11 00:01:40;;;;;;;10.53;9.53;;;;;;;21.65;62.49;98992.30;1712477;82;20982;-70
2022/06/11 00:04:10;;;;;;;11.57;10.50;;;;;;;21.50;62.87;98993.47;1719857;82;21245;-70
2022/06/11 00:06:41;;;;;;;11.68;10.48;;;;;;;21.36;63.38;98992.20;1713880;82;20895;-70
2022/06/11 00:09:08;;;;;;;11.38;10.08;;;;;;;21.28;63.59;98996.17;1690518;83;21375;-71
2022/06/11 00:11:35;;;;;;;10.63;9.73;;;;;;;21.25;63.67;98990.42;1713376;82;20970;-70
2022/06/11 00:14:03;;;;;;;9.75;8.75;;;;;;;21.21;63.65;98998.77;1714865;82;20887;-72
2022/06/11 00:16:31;;;;;;;9.05;8.15;;;;;;;21.21;63.65;98998.77;1720334;82;21562;-72
2022/06/11 00:19:00;;;;;;;10.60;9.48;;;;;;;21.11;64.27;98998.64;1713372;82;20990;-70
2022/06/11 00:21:30;;;;;;;11.88;10.75;;;;;;;20.99;64.54;99002.75;1713473;82;21067;-70
2022/06/11 00:23:56;;;;;;;9.73;8.93;;;;;;;20.86;64.82;99003.10;1710421;82;20959;-70
2022/06/11 00:26:23;;;;;;;10.72;9.78;;;;;;;20.74;65.19;99001.03;1713491;82;20982;-70
2022/06/11 00:28:50;;;;;;;12.33;11.00;;;;;;;20.64;65.65;98992.78;1713375;82;21325;-72
2022/06/11 00:31:17;;;;;;;21.60;16.45;;;;;;;20.55;65.89;98992.36;1713427;82;20886;-72
2022/06/11 00:33:44;;;;;;;14.03;12.73;;;;;;;20.51;65.85;98990.41;1720296;82;20896;-71
2022/06/11 00:36:11;;;;;;;19.75;17.57;;;;;;;20.50;66.05;98995.51;1662336;84;20987;-72
2022/06/11 00:38:39;;;;;;;16.60;14.53;;;;;;;20.44;66.34;98989.77;1698222;84;21027;-71
2022/06/11 00:41:05;;;;;;;33.20;26.33;;;;;;;20.39;66.60;98989.68;1698302;84;21565;-70
2022/06/11 00:43:32;;;;;;;40.45;28.77;;;;;;;20.37;66.66;98989.08;1689714;82;21545;-70
2022/06/11 00:46:21;;;;;;;28.40;23.57;;;;;;;20.38;66.42;98990.20;1700447;84;21585;-71
2022/06/11 00:48:49;;;;;;;22.77;19.10;;;;;;;20.41;66.40;98992.95;1696028;82;20979;-69
2022/06/11 00:51:19;;;;;;;18.67;16.80;;;;;;;20.36;66.71;98996.39;1721229;82;20935;-72
2022/06/11 00:53:58;;;;;;;22.37;16.82;;;;;;;20.31;67.01;98991.70;1720775;82;21241;-70
2022/06/11 00:56:40;;;;;;;16.52;14.83;;;;;;;20.24;67.17;98995.63;1715163;82;20915;-70
2022/06/11 00:59:11;;;;;;;14.30;12.75;;;;;;;20.22;67.11;98997.20;1713692;82;20942;-71
2022/06/11 01:01:39;;;;;;;12.28;11.28;;;;;;;20.25;67.31;99008.91;1713467;82;20931;-71
2022/06/11 01:04:37;;;;;;;10.95;9.88;;;;;;;20.23;67.40;98998.02;1711909;82;20900;-71
2022/06/11 01:07:33;;;;;;;10.60;9.35;;;;;;;20.20;67.31;98998.50;1689032;82;21121;-71
2022/06/11 01:10:26;;;;;;;9.63;8.93;;;;;;;20.19;67.24;98999.03;1704029;81;20946;-71
2022/06/11 01:13:30;;;;;;;8.63;7.85;;;;;;;20.21;67.17;98994.72;1713283;82;20895;-70
2022/06/11 01:15:55;;;;;;;9.13;8.38;;;;;;;20.21;67.13;98997.42;1695117;82;21049;-72
2022/06/11 01:18:49;;;;;;;9.38;8.45;;;;;;;20.22;67.15;98999.08;1722249;82;20991;-71
2022/06/11 01:21:37;;;;;;;9.48;8.75;;;;;;;20.23;67.22;99004.25;1713412;82;21166;-71
2022/06/11 01:24:29;;;;;;;9.83;8.88;;;;;;;20.18;67.33;99001.95;1714777;82;20844;-71
2022/06/11 01:27:27;;;;;;;10.03;9.05;;;;;;;20.14;67.51;98998.12;1722546;82;20935;-71
2022/06/11 01:30:00;;;;;;;9.68;8.78;;;;;;;20.08;67.54;98999.91;1712944;82;20943;-71
2022/06/11 01:33:01;;;;;;;9.40;8.60;;;;;;;19.93;67.73;98999.63;1692249;82;20990;-71
2022/06/11 01:35:48;;;;;;;10.05;8.98;;;;;;;19.76;68.15;98997.95;1726766;82;21113;-69
2022/06/11 01:38:29;;;;;;;10.93;9.50;;;;;;;19.64;68.74;99015.00;1714696;82;20965;-71
2022/06/11 01:41:26;;;;;;;14.93;11.93;;;;;;;19.59;69.14;99009.50;1713500;82;21050;-70
2022/06/11 01:43:57;;;;;;;11.40;10.20;;;;;;;19.59;69.40;99005.45;1714540;82;20939;-70
2022/06/11 01:46:28;;;;;;;11.30;10.30;;;;;;;19.61;69.51;99008.73;1693705;82;20899;-69
2022/06/11 01:49:03;;;;;;;10.20;9.13;;;;;;;19.60;69.65;99008.98;1713220;82;21241;-71
2022/06/11 01:51:44;;;;;;;10.48;9.43;;;;;;;19.57;69.79;99006.23;1713188;82;21505;-70
2022/06/11 01:55:05;;;;;;;9.98;9.10;;;;;;;19.50;69.97;99009.58;1706948;82;20983;-70
2022/06/11 01:58:07;;;;;;;10.40;9.43;;;;;;;19.44;70.18;99009.73;1708278;83;21043;-71
2022/06/11 02:00:39;;;;;;;10.78;9.90;;;;;;;19.31;70.71;99018.05;1708051;83;21383;-70
2022/06/11 02:03:17;;;;;;;10.30;9.15;;;;;;;19.29;71.12;99022.34;1707512;82;21262;-71
2022/06/11 02:05:58;;;;;;;10.50;9.50;;;;;;;19.33;71.19;99026.19;1713119;82;20884;-70
2022/06/11 02:08:46;;;;;;;9.03;8.05;;;;;;;19.38;71.33;99027.67;1678072;83;21320;-71
2022/06/11 02:11:29;;;;;;;9.50;7.67;;;;;;;19.43;71.33;99021.56;1632980;84;20931;-72
2022/06/11 02:14:38;;;;;;;12.78;8.30;;;;;;;19.49;71.31;99021.44;1711145;82;21833;-69
2022/06/11 02:17:15;;;;;;;9.18;8.48;;;;;;;19.57;71.13;99029.16;1708176;83;21158;-70
2022/06/11 02:19:49;;;;;;;9.10;8.30;;;;;;;19.60;70.91;99036.79;1708094;83;20998;-70
2022/06/11 02:22:20;;;;;;;9.48;8.65;;;;;;;19.57;70.74;99039.13;1707268;83;20911;-70
2022/06/11 02:24:51;;;;;;;10.48;8.18;;;;;;;19.55;70.73;99036.66;1667365;84;20967;-71
2022/06/11 02:27:22;;;;;;;8.48;7.78;;;;;;;19.53;70.94;99044.17;1708988;82;21011;-70
2022/06/11 02:29:50;;;;;;;8.40;7.47;;;;;;;19.57;70.93;99043.18;1708226;83;21892;-70
2022/06/11 02:32:17;;;;;;;8.53;7.85;;;;;;;19.57;71.08;99053.45;1680432;83;20908;-72
2022/06/11 02:34:50;;;;;;;7.95;7.22;;;;;;;19.60;71.29;99059.72;1679945;84;21424;-72
2022/06/11 02:37:31;;;;;;;7.60;6.87;;;;;;;19.67;71.32;99056.35;1708078;83;21402;-70
2022/06/11 02:40:11;;;;;;;10.58;6.70;;;;;;;19.73;71.26;99053.23;1708206;83;21085;-70
2022/06/11 02:42:37;;;;;;;8.80;7.53;;;;;;;19.80;71.21;99055.77;1708544;82;21167;-72
2022/06/11 02:45:06;;;;;;;8.55;7.75;;;;;;;19.86;71.13;99054.83;1715099;82;20844;-70
2022/06/11 02:47:33;;;;;;;9.25;7.30;;;;;;;19.93;71.08;99056.84;1710791;82;20999;-71
2022/06/11 02:50:00;;;;;;;7.95;7.17;;;;;;;20.01;70.98;99060.52;1708168;83;20915;-71
2022/06/11 02:52:26;;;;;;;11.20;7.90;;;;;;;20.05;70.84;99057.08;1705461;82;21039;-70
2022/06/11 02:54:53;;;;;;;10.03;7.33;;;;;;;20.09;70.80;99063.66;1718991;82;21232;-70
2022/06/11 02:57:24;;;;;;;7.85;7.05;;;;;;;20.15;70.71;99061.88;1713752;83;20943;-72
2022/06/11 02:59:51;;;;;;;8.03;7.12;;;;;;;20.19;70.65;99057.62;1713707;83;20987;-70
2022/06/11 03:02:19;;;;;;;7.72;6.87;;;;;;;20.24;70.58;99061.27;1712127;82;21458;-71
2022/06/11 03:04:45;;;;;;;8.20;7.50;;;;;;;20.30;70.53;99067.58;1717130;82;20982;-70
2022/06/11 03:07:12;;;;;;;8.18;7.47;;;;;;;20.35;70.45;99069.55;1707327;82;21161;-70
2022/06/11 03:09:39;;;;;;;7.92;7.30;;;;;;;20.41;70.39;99073.47;1695516;83;21030;-71
2022/06/11 03:12:07;;;;;;;9.38;7.45;;;;;;;20.46;70.35;99075.42;1713645;83;21433;-70
2022/06/11 03:14:34;;;;;;;8.43;7.72;;;;;;;20.54;70.12;99077.73;1710540;82;20899;-70
2022/06/11 03:17:01;;;;;;;8.08;7.28;;;;;;;20.63;69.86;99080.30;1713868;83;20927;-72
2022/06/11 03:19:27;;;;;;;7.22;6.60;;;;;;;20.71;69.50;99079.91;1713658;83;21225;-72
2022/06/11 03:21:54;;;;;;;7.30;6.70;;;;;;;20.81;69.35;99082.77;1713706;83;20970;-71
2022/06/11 03:24:23;;;;;;;7.78;7.17;;;;;;;20.88;69.02;99080.19;1717534;82;21465;-71
2022/06/11 03:26:50;;;;;;;8.18;7.50;;;;;;;20.98;68.78;99084.14;1713965;83;20942;-71
2022/06/11 03:29:17;;;;;;;8.10;7.40;;;;;;;21.10;68.30;99085.70;1713753;83;20895;-73
2022/06/11 03:31:45;;;;;;;8.25;7.45;;;;;;;21.19;67.90;99086.12;1713692;83;21888;-71
2022/06/11 03:34:12;;;;;;;7.65;6.65;;;;;;;21.23;67.47;99078.60;1717315;82;20979;-72
2022/06/11 03:36:38;;;;;;;8.35;7.55;;;;;;;21.25;67.31;99079.16;1718845;83;20978;-71
2022/06/11 03:39:06;;;;;;;7.40;6.80;;;;;;;21.34;67.26;99078.22;1713617;83;20895;-72
2022/06/11 03:41:33;;;;;;;7.67;6.97;;;;;;;21.59;66.82;99080.47;1713820;83;20950;-71
2022/06/11 03:44:00;;;;;;;9.90;7.35;;;;;;;21.87;66.06;99081.13;1691113;82;21282;-71
2022/06/11 03:46:28;;;;;;;7.50;6.90;;;;;;;22.21;65.25;99076.90;1713676;83;21512;-70
2022/06/11 03:48:56;;;;;;;7.47;6.78;;;;;;;23.17;62.62;99075.34;1713763;83;21053;-71
2022/06/11 03:51:23;;;;;;;8.18;7.37;;;;;;;23.17;62.62;99075.34;1713687;83;20903;-71
2022/06/11 03:53:50;;;;;;;7.83;7.10;;;;;;;23.63;61.13;99067.47;1713756;82;21544;-71
2022/06/11 03:56:17;;;;;;;7.62;7.03;;;;;;;24.18;59.51;99073.14;1713704;83;21219;-71
2022/06/11 03:58:46;;;;;;;8.23;7.42;;;;;;;24.71;57.90;99080.56;1713736;83;20947;-72
2022/06/11 04:01:16;;;;;;;7.17;6.58;;;;;;;25.13;56.20;99077.05;1713813;83;20962;-70
2022/06/11 04:03:49;;;;;;;7.45;6.65;;;;;;;25.17;55.26;99076.77;1714866;82;20895;-70
2022/06/11 04:06:19;;;;;;;7.05;6.42;;;;;;;25.10;55.07;99070.25;1713599;83;20891;-70
2022/06/11 04:08:46;;;;;;;7.00;6.47;;;;;;;25.52;54.34;99078.64;1683398;83;21870;-70
2022/06/11 04:11:15;;;;;;;7.90;7.15;;;;;;;25.93;53.10;99076.57;1713705;83;20895;-70
2022/06/11 04:13:42;;;;;;;8.20;7.15;;;;;;;25.89;52.55;99075.52;1715413;82;21069;-72
2022/06/11 04:16:50;;;;;;;8.18;7.58;;;;;;;25.71;52.71;99083.19;1713677;83;20982;-69
2022/06/11 04:19:24;;;;;;;7.80;6.80;;;;;;;25.66;53.02;99083.75;1695373;83;20939;-72
2022/06/11 04:21:51;;;;;;;7.12;6.62;;;;;;;26.18;52.36;99077.83;1713869;83;21147;-71
2022/06/11 04:24:18;;;;;;;7.42;6.72;;;;;;;26.91;51.17;99071.34;1712413;82;21074;-72
2022/06/11 04:26:48;;;;;;;8.05;6.75;;;;;;;27.75;49.50;99065.86;1713341;83;20930;-71
2022/06/11 04:29:18;;;;;;;7.15;6.45;;;;;;;28.48;47.68;99065.44;1713801;83;20907;-70
2022/06/11 04:31:46;;;;;;;7.40;6.83;;;;;;;29.14;45.99;99068.76;1710712;82;20887;-72
2022/06/11 04:34:13;;;;;;;7.37;6.67;;;;;;;29.69;44.31;99070.22;1714792;82;21242;-73
2022/06/11 04:36:41;;;;;;;6.67;6.15;;;;;;;30.09;43.40;99071.34;1713859;83;21536;-71
2022/06/11 04:39:09;;;;;;;6.65;6.12;;;;;;;30.49;42.59;99069.89;1713843;83;21038;-73
2022/06/11 04:41:35;;;;;;;10.05;6.05;;;;;;;31.03;41.58;99072.97;1713976;83;21022;-72
2022/06/11 04:44:02;;;;;;;6.67;5.87;;;;;;;31.53;40.39;99070.03;1718144;82;20983;-71
2022/06/11 04:46:30;;;;;;;6.30;5.70;;;;;;;31.94;39.41;99065.58;1713768;83;22605;-72
2022/06/11 04:48:56;;;;;;;6.50;6.00;;;;;;;32.33;38.71;99061.36;1713695;83;21512;-70
2022/06/11 04:51:23;;;;;;;6.37;5.78;;;;;;;32.83;37.86;99060.33;1713790;83;20979;-73
2022/06/11 04:53:50;;;;;;;6.72;6.12;;;;;;;33.26;36.99;99062.47;1711815;82;21540;-72
2022/06/11 04:56:20;;;;;;;7.33;5.65;;;;;;;33.56;36.17;99061.97;1710165;83;21417;-70
2022/06/11 04:58:47;;;;;;;6.00;5.45;;;;;;;33.78;35.65;99058.95;1708355;83;21872;-70
2022/06/11 05:01:14;;;;;;;6.53;5.33;;;;;;;33.87;35.42;99061.08;1713006;82;20915;-69
2022/06/11 05:03:41;;;;;;;7.87;5.55;;;;;;;34.12;35.06;99060.73;1710763;82;21026;-71
2022/06/11 05:06:09;;;;;;;6.90;5.62;;;;;;;34.50;34.53;99058.66;1712334;82;20974;-71
2022/06/11 05:08:36;;;;;;;6.60;5.85;;;;;;;34.91;33.84;99062.55;1718301;82;21081;-68
2022/06/11 05:11:05;;;;;;;6.53;5.78;;;;;;;35.20;33.20;99062.42;1709518;83;21418;-69
2022/06/11 05:13:32;;;;;;;5.97;5.50;;;;;;;35.41;32.74;99064.53;1701156;82;21593;-71
2022/06/11 05:15:59;;;;;;;7.10;6.20;;;;;;;35.50;32.31;99062.48;1714097;82;21504;-67
2022/06/11 05:18:29;;;;;;;6.17;5.78;;;;;;;35.43;32.41;99070.55;1708157;83;20987;-69
2022/06/11 05:20:57;;;;;;;7.83;5.33;;;;;;;35.64;32.26;99077.41;1705161;83;21066;-68
2022/06/11 05:23:24;;;;;;;5.90;5.40;;;;;;;35.97;31.73;99074.51;1700440;83;21149;-68
2022/06/11 05:25:52;;;;;;;6.30;5.80;;;;;;;36.22;31.56;99072.77;1705028;82;21083;-71
2022/06/11 05:28:23;;;;;;;5.62;5.22;;;;;;;36.77;30.75;99066.53;1708550;82;21014;-69
2022/06/11 05:30:52;;;;;;;6.10;5.08;;;;;;;37.20;30.22;99074.67;1709933;82;20955;-71
2022/06/11 05:33:20;;;;;;;5.58;5.20;;;;;;;37.76;29.65;99067.00;1710111;82;22402;-69
2022/06/11 05:35:47;;;;;;;7.53;5.35;;;;;;;38.44;28.71;99068.27;1694750;82;22322;-69
2022/06/11 05:38:17;;;;;;;7.53;5.22;;;;;;;38.96;27.95;99066.96;1709231;82;21000;-70
2022/06/11 05:40:47;;;;;;;5.97;5.53;;;;;;;39.49;27.10;99066.81;1701983;82;21070;-67
2022/06/11 05:43:13;;;;;;;5.80;5.30;;;;;;;39.87;26.21;99069.23;1708028;82;21019;-67
2022/06/11 05:45:55;;;;;;;5.28;4.87;;;;;;;39.80;26.02;99074.11;1712542;82;21137;-70
2022/06/11 05:48:27;;;;;;;5.30;4.92;;;;;;;39.70;26.25;99083.09;1704150;82;21147;-71
2022/06/11 05:50:54;;;;;;;6.03;5.53;;;;;;;40.15;25.85;99077.26;1707566;82;21011;-71
2022/06/11 05:53:22;;;;;;;6.05;5.53;;;;;;;40.45;25.16;99068.31;1711223;82;20983;-71
2022/06/11 05:55:49;;;;;;;5.70;5.15;;;;;;;40.55;24.91;99074.06;1712700;81;21539;-71
2022/06/11 05:58:22;;;;;;;5.80;5.40;;;;;;;40.66;24.81;99081.98;1741461;81;20959;-71
2022/06/11 06:00:50;;;;;;;5.72;5.22;;;;;;;40.96;24.73;99087.53;1737313;81;21878;-71
2022/06/11 06:03:16;;;;;;;5.28;4.80;;;;;;;41.56;24.42;99090.19;1739275;81;21064;-70
2022/06/11 06:05:43;;;;;;;5.85;5.25;;;;;;;42.19;23.76;99090.72;1732592;81;20889;-70
2022/06/11 06:08:11;;;;;;;5.95;5.40;;;;;;;42.83;22.42;99103.07;1732865;81;21026;-70
2022/06/11 06:10:38;;;;;;;5.60;5.10;;;;;;;42.49;22.27;99099.48;1727704;81;21499;-69
2022/06/11 06:13:45;;;;;;;5.92;5.42;;;;;;;42.16;22.91;99087.30;1719693;82;21087;-75
2022/06/11 06:15:33;;;;;;;5.35;4.95;;;;;;;42.48;22.76;99092.27;1721317;81;20966;-72
2022/06/11 06:18:02;;;;;;;7.75;5.40;;;;;;;42.91;22.32;99096.90;1741522;81;21496;-72
2022/06/11 06:20:29;;;;;;;6.05;5.55;;;;;;;43.39;21.70;99094.06;1737431;81;20989;-75
2022/06/11 06:22:56;;;;;;;7.42;5.10;;;;;;;43.65;21.31;99099.11;1732398;81;20907;-75
2022/06/11 06:25:23;;;;;;;5.95;5.47;;;;;;;43.85;21.26;99091.33;1731481;81;21172;-74
2022/06/11 06:27:49;;;;;;;8.75;7.37;;;;;;;44.22;20.84;99095.72;1736505;81;21511;-74
2022/06/11 06:30:15;;;;;;;7.08;6.58;;;;;;;44.08;20.91;99094.50;1688364;83;21461;-75
2022/06/11 06:32:42;;;;;;;8.53;7.97;;;;;;;44.05;20.78;99097.30;1712540;82;21007;-78
2022/06/11 06:35:08;;;;;;;6.65;6.03;;;;;;;44.13;20.79;99088.52;1687827;83;21450;-75
2022/06/11 06:37:35;;;;;;;5.80;5.30;;;;;;;44.28;20.64;99092.68;1713809;82;21145;-76
2022/06/11 06:40:02;;;;;;;5.58;5.15;;;;;;;44.29;20.53;99095.69;1689168;83;20990;-75
2022/06/11 06:42:28;;;;;;;7.80;5.37;;;;;;;44.43;20.62;99093.64;1703835;82;21235;-76
2022/06/11 06:44:57;;;;;;;6.08;5.65;;;;;;;44.94;20.00;99093.70;1688017;83;20907;-77
2022/06/11 06:47:23;;;;;;;6.70;5.67;;;;;;;44.82;19.83;99094.95;1715335;82;20948;-76
2022/06/11 06:49:50;;;;;;;6.83;5.08;;;;;;;44.74;19.90;99098.36;1703851;82;21249;-75
2022/06/11 06:52:17;;;;;;;6.12;5.65;;;;;;;44.64;20.03;99104.02;1689169;83;21114;-75
2022/06/11 06:54:44;;;;;;;6.65;6.15;;;;;;;44.93;19.80;99107.52;1703927;82;20860;-75
2022/06/11 06:57:10;;;;;;;5.83;5.30;;;;;;;44.26;20.23;99104.91;1689281;83;20998;-75
2022/06/11 06:59:37;;;;;;;5.67;5.33;;;;;;;43.08;21.43;99106.56;1698290;82;20944;-77
2022/06/11 07:02:04;;;;;;;9.00;8.40;;;;;;;43.02;21.77;99109.74;1713602;82;21194;-75
2022/06/11 07:04:30;;;;;;;9.53;8.53;;;;;;;43.65;21.43;99109.69;1713457;82;21490;-79
2022/06/11 07:06:58;;;;;;;5.72;5.33;;;;;;;44.30;20.79;99109.29;1707174;82;21524;-77
2022/06/11 07:09:24;;;;;;;6.47;5.83;;;;;;;43.83;21.04;99111.14;1694830;82;21461;-75
2022/06/11 07:11:52;;;;;;;6.05;5.40;;;;;;;42.82;22.02;99115.44;1713397;82;21457;-74
2022/06/11 07:14:18;;;;;;;6.25;5.75;;;;;;;41.79;23.04;99114.55;1713370;82;21092;-76
2022/06/11 07:16:49;;;;;;;5.97;5.42;;;;;;;41.16;23.70;99119.66;1713390;82;21398;-75
2022/06/11 07:19:26;;;;;;;6.05;5.55;;;;;;;41.30;23.92;99119.05;1713444;82;20887;-75
2022/06/11 07:21:54;;;;;;;5.78;5.28;;;;;;;41.44;23.87;99121.96;1712507;82;20915;-77
2022/06/11 07:24:24;;;;;;;5.55;5.05;;;;;;;41.30;24.04;99123.78;1725936;82;21548;-76
2022/06/11 07:26:53;;;;;;;6.08;5.55;;;;;;;41.85;23.86;99124.15;1726339;82;21263;-75
2022/06/11 07:29:25;;;;;;;5.65;5.25;;;;;;;42.92;22.91;99125.06;1713491;82;20942;-74
2022/06/11 07:31:56;;;;;;;6.20;5.70;;;;;;;42.97;22.68;99128.31;1712787;82;21039;-77
2022/06/11 07:34:23;;;;;;;5.75;5.35;;;;;;;42.20;23.01;99127.26;1713460;82;21544;-75
2022/06/11 07:36:50;;;;;;;7.72;5.67;;;;;;;41.38;24.00;99131.08;1713532;82;20951;-77
2022/06/11 07:39:17;;;;;;;5.28;4.92;;;;;;;41.80;24.06;99121.72;1713389;82;21225;-76
2022/06/11 07:41:43;;;;;;;6.15;5.70;;;;;;;42.86;22.96;99130.26;1713459;82;20970;-77
2022/06/11 07:44:09;;;;;;;6.37;5.87;;;;;;;43.65;21.69;99125.09;1713392;82;21643;-74
2022/06/11 07:46:37;;;;;;;5.67;5.17;;;;;;;44.00;21.34;99125.73;1713456;82;21001;-79
2022/06/11 07:49:03;;;;;;;6.42;5.92;;;;;;;44.59;20.94;99119.86;1713646;83;20975;-76
2022/06/11 07:51:29;;;;;;;5.95;5.37;;;;;;;45.24;20.33;99116.37;1713533;82;21231;-75
2022/06/11 07:53:56;;;;;;;6.53;6.03;;;;;;;45.65;19.64;99111.77;1713465;82;20883;-75
2022/06/11 07:56:22;;;;;;;6.25;5.75;;;;;;;45.93;19.39;99114.92;1713514;83;21009;-75
2022/06/11 07:58:49;;;;;;;6.15;5.58;;;;;;;46.32;18.99;99114.56;1713751;83;21017;-77
2022/06/11 08:01:16;;;;;;;5.85;5.45;;;;;;;46.34;18.96;99115.74;1713723;83;20911;-77
2022/06/11 08:03:43;;;;;;;8.03;5.83;;;;;;;45.94;19.33;99118.71;1713716;83;21314;-75
2022/06/11 08:06:09;;;;;;;7.58;6.12;;;;;;;46.04;19.45;99119.08;1713595;83;20982;-75
2022/06/11 08:08:36;;;;;;;6.10;5.62;;;;;;;46.58;18.69;99121.53;1683347;83;21054;-74
2022/06/11 08:11:04;;;;;;;7.40;6.85;;;;;;;46.57;18.46;99127.77;1713830;83;21015;-76
2022/06/11 08:13:32;;;;;;;10.50;9.70;;;;;;;46.29;18.85;99122.43;1713690;83;20939;-76
2022/06/11 08:16:00;;;;;;;8.18;7.50;;;;;;;46.29;19.07;99121.02;1713735;83;21675;-75
2022/06/11 08:18:27;;;;;;;6.45;5.90;;;;;;;46.26;19.19;99126.06;1713653;83;20927;-76
2022/06/11 08:20:53;;;;;;;5.42;5.08;;;;;;;46.04;19.48;99119.08;1713809;83;20974;-74
2022/06/11 08:23:21;;;;;;;7.58;5.50;;;;;;;45.96;19.76;99126.14;1713927;83;21074;-74
2022/06/11 08:25:48;;;;;;;6.25;5.70;;;;;;;46.05;19.79;99123.49;1714116;83;20851;-77
2022/06/11 08:28:15;;;;;;;6.33;5.83;;;;;;;46.53;19.11;99129.84;1714317;83;21610;-76
2022/06/11 08:30:44;;;;;;;5.80;5.40;;;;;;;46.89;18.70;99121.19;1714578;83;21489;-75
2022/06/11 08:33:10;;;;;;;8.50;5.67;;;;;;;47.36;18.35;99122.77;1713583;83;20995;-76
2022/06/11 08:35:38;;;;;;;6.25;5.00;;;;;;;47.87;17.99;99130.88;1713730;83;21041;-75
2022/06/11 08:38:06;;;;;;;5.45;5.05;;;;;;;48.19;17.55;99128.30;1713785;83;20895;-77
2022/06/11 08:40:49;;;;;;;5.75;5.30;;;;;;;48.52;17.28;99125.11;1713934;83;21639;-75
2022/06/11 08:43:26;;;;;;;5.85;5.40;;;;;;;48.68;17.00;99126.56;1713911;83;20923;-76
2022/06/11 08:46:03;;;;;;;5.80;5.30;;;;;;;48.41;17.00;99116.63;1713955;83;20855;-77
2022/06/11 08:49:08;;;;;;;9.85;8.83;;;;;;;47.92;17.39;99116.91;1713668;83;21497;-75
2022/06/11 08:51:49;;;;;;;7.28;6.78;;;;;;;47.92;17.39;99116.91;1713868;83;20896;-75
2022/06/11 08:54:20;;;;;;;6.17;5.75;;;;;;;47.95;17.48;99121.05;1713692;83;21233;-74
2022/06/11 08:57:06;;;;;;;5.70;5.35;;;;;;;48.02;17.18;99126.59;1713772;82;20899;-76
2022/06/11 08:59:54;;;;;;;6.28;5.78;;;;;;;48.00;17.36;99130.45;1674543;82;21011;-76
2022/06/11 09:02:58;;;;;;;6.25;5.75;;;;;;;48.14;17.16;99123.73;1713475;82;20943;-77
2022/06/11 09:05:36;;;;;;;5.70;5.20;;;;;;;48.14;17.16;99123.73;1713571;82;21050;-75
2022/06/11 09:08:18;;;;;;;8.00;6.10;;;;;;;47.96;17.49;99127.48;1691041;82;21145;-75
2022/06/11 09:11:14;;;;;;;5.97;5.58;;;;;;;46.54;18.48;99121.59;1689248;82;20899;-75
2022/06/11 09:14:31;;;;;;;6.20;5.35;;;;;;;45.26;19.84;99125.23;1713491;82;21574;-75
2022/06/11 09:17:13;;;;;;;6.03;5.60;;;;;;;45.40;19.94;99126.53;1739206;82;20982;-75
2022/06/11 09:20:07;;;;;;;6.65;5.70;;;;;;;46.08;19.33;99128.26;1713658;82;21006;-76
2022/06/11 09:22:55;;;;;;;6.47;5.87;;;;;;;45.88;19.35;99126.02;1713645;82;21542;-75
2022/06/11 09:25:56;;;;;;;5.58;5.17;;;;;;;44.31;20.47;99123.52;1630331;88;20966;-76
2022/06/11 09:29:00;;;;;;;6.00;5.45;;;;;;;44.00;21.41;99129.94;1713696;82;21015;-75
2022/06/11 09:31:44;;;;;;;6.00;5.53;;;;;;;44.69;20.62;99122.63;1713119;82;20875;-75
2022/06/11 09:34:36;;;;;;;5.72;5.12;;;;;;;45.34;20.03;99119.78;1713853;82;20978;-76
2022/06/11 09:37:16;;;;;;;5.92;5.00;;;;;;;45.85;19.28;99124.63;1713441;82;21739;-77
2022/06/11 09:40:10;;;;;;;5.70;5.30;;;;;;;46.03;19.03;99119.67;1713396;82;20966;-76
2022/06/11 09:42:50;;;;;;;5.35;4.95;;;;;;;46.44;18.60;99121.89;1713581;82;21097;-74
2022/06/11 09:45:34;;;;;;;6.80;6.15;;;;;;;46.51;18.49;99128.86;1683657;83;20914;-76
2022/06/11 09:48:24;;;;;;;7.10;6.58;;;;;;;46.33;18.53;99121.80;1713205;82;20961;-76
2022/06/11 09:51:12;;;;;;;6.33;5.72;;;;;;;46.05;18.83;99128.48;1713470;82;21323;-75
2022/06/11 09:54:27;;;;;;;5.85;5.37;;;;;;;46.17;18.68;99128.59;1713426;82;21026;-75
2022/06/11 09:57:26;;;;;;;5.62;5.15;;;;;;;45.90;18.61;99129.20;1711015;83;20895;-75
2022/06/11 10:00:12;;;;;;;5.00;4.70;;;;;;;43.96;20.06;99126.34;1708274;83;20860;-76
2022/06/11 10:02:57;;;;;;;5.42;5.08;;;;;;;42.50;21.77;99129.82;1694727;83;20915;-79
2022/06/11 10:05:25;;;;;;;5.65;5.15;;;;;;;41.58;23.04;99122.70;1705582;83;21152;-75
2022/06/11 10:08:04;;;;;;;5.35;4.85;;;;;;;40.63;24.03;99127.92;1684407;83;21564;-73
2022/06/11 10:10:32;;;;;;;8.03;4.65;;;;;;;39.48;25.44;99132.56;1705455;83;21003;-77
2022/06/11 10:13:07;;;;;;;5.70;5.20;;;;;;;38.43;26.99;99131.95;1708165;83;21083;-76
2022/06/11 10:15:38;;;;;;;10.15;4.62;;;;;;;37.59;28.18;99132.83;1666516;83;21441;-75
2022/06/11 10:18:30;;;;;;;5.05;4.45;;;;;;;36.92;29.64;99132.89;1708246;83;21820;-75
2022/06/11 10:21:00;;;;;;;5.78;5.30;;;;;;;36.56;30.69;99126.86;1708237;83;20896;-75
2022/06/11 10:23:59;;;;;;;6.78;4.70;;;;;;;36.19;30.77;99132.99;1708112;83;20939;-75
2022/06/11 10:26:39;;;;;;;5.05;4.53;;;;;;;35.83;31.44;99131.01;1708185;83;20939;-76
2022/06/11 10:29:27;;;;;;;5.33;4.83;;;;;;;35.54;32.27;99133.17;1708373;83;21438;-76
2022/06/11 10:32:08;;;;;;;4.95;4.60;;;;;;;35.42;32.49;99129.77;1708154;84;21892;-73
2022/06/11 10:34:37;;;;;;;5.25;4.95;;;;;;;35.36;32.67;99133.89;1708131;83;20848;-75
2022/06/11 10:37:20;;;;;;;5.47;5.08;;;;;;;35.21;32.50;99146.41;1708318;84;20943;-74
2022/06/11 10:39:55;;;;;;;5.45;4.95;;;;;;;34.89;32.53;99136.67;1708173;83;20872;-74
2022/06/11 10:43:03;;;;;;;5.12;4.72;;;;;;;34.62;33.18;99133.34;1708074;83;21504;-75
2022/06/11 10:45:31;;;;;;;6.60;6.00;;;;;;;34.46;33.57;99136.98;1650301;84;21280;-77
2022/06/11 10:47:59;;;;;;;7.53;6.95;;;;;;;34.17;34.07;99124.02;1708052;83;20997;-74
2022/06/11 10:50:35;;;;;;;5.37;4.97;;;;;;;34.00;34.57;99133.72;1708114;83;20931;-76
2022/06/11 10:53:28;;;;;;;5.58;5.17;;;;;;;33.88;34.69;99133.63;1708314;83;20966;-75
2022/06/11 10:55:59;;;;;;;6.03;4.47;;;;;;;33.75;34.83;99125.00;1706743;83;20931;-75
2022/06/11 10:58:54;;;;;;;5.22;4.78;;;;;;;33.67;35.40;99121.70;1691616;83;21243;-77
2022/06/11 11:01:45;;;;;;;5.42;4.92;;;;;;;33.51;35.82;99122.78;1721326;83;21071;-74
2022/06/11 11:04:30;;;;;;;10.08;5.17;;;;;;;33.36;36.02;99123.32;1721450;83;20954;-77
2022/06/11 11:07:18;;;;;;;5.53;4.87;;;;;;;33.30;36.42;99117.73;1714371;83;21004;-74
2022/06/11 11:09:45;;;;;;;5.15;4.75;;;;;;;33.20;36.12;99107.88;1704970;83;20994;-76
2022/06/11 11:12:33;;;;;;;5.42;5.03;;;;;;;33.08;36.48;99111.06;1721471;82;20909;-76
2022/06/11 11:15:16;;;;;;;5.00;4.70;;;;;;;33.06;36.81;99114.72;1721460;82;21001;-75
2022/06/11 11:17:53;;;;;;;6.15;4.90;;;;;;;33.01;36.28;99107.97;1721439;82;20915;-74
2022/06/11 11:20:32;;;;;;;6.08;5.47;;;;;;;32.98;36.43;99113.56;1721391;82;20986;-75
2022/06/11 11:23:15;;;;;;;4.83;4.53;;;;;;;32.94;36.63;99116.15;1719495;82;20954;-73
2022/06/11 11:26:02;;;;;;;9.25;4.58;;;;;;;33.00;36.95;99109.09;1721375;82;21215;-74
2022/06/11 11:28:32;;;;;;;5.87;4.50;;;;;;;33.01;36.90;99108.75;1721413;83;20993;-75
2022/06/11 11:31:08;;;;;;;5.05;4.65;;;;;;;33.05;36.98;99111.14;1721423;82;20938;-75
2022/06/11 11:33:38;;;;;;;5.30;4.90;;;;;;;33.18;36.75;99101.07;1721440;82;20876;-75
2022/06/11 11:36:25;;;;;;;4.15;3.95;;;;;;;33.26;36.08;99104.38;1721516;82;20863;-74
2022/06/11 11:39:17;;;;;;;6.00;4.40;;;;;;;33.25;36.01;99097.23;1721442;82;21908;-74
2022/06/11 11:42:08;;;;;;;6.75;3.98;;;;;;;33.32;36.54;99089.30;1721386;82;21010;-75
2022/06/11 11:44:50;;;;;;;4.58;4.17;;;;;;;33.39;36.55;99090.41;1721665;82;20914;-74
2022/06/11 11:47:21;;;;;;;5.60;5.10;;;;;;;33.49;36.81;99090.04;1721353;82;20982;-75
2022/06/11 11:49:58;;;;;;;5.22;4.58;;;;;;;33.56;36.67;99085.41;1712828;82;20916;-75
2022/06/11 11:52:25;;;;;;;4.78;4.37;;;;;;;33.60;36.41;99085.00;1712293;83;22224;-75
2022/06/11 11:55:02;;;;;;;4.60;4.15;;;;;;;33.58;35.90;99076.26;1721637;82;20947;-75
2022/06/11 11:57:31;;;;;;;4.22;3.92;;;;;;;33.51;36.00;99073.97;1722111;82;20918;-76
2022/06/11 12:00:13;;;;;;;5.22;4.92;;;;;;;33.49;35.99;99064.41;1721376;82;20923;-74
2022/06/11 12:02:46;;;;;;;5.47;4.17;;;;;;;33.48;36.31;99064.97;1719119;82;21025;-75
2022/06/11 12:05:23;;;;;;;5.15;4.65;;;;;;;33.52;36.37;99062.38;1691284;83;21056;-74